createdAt,value
2019-02-14T00:00:14.930Z,9.10
2019-02-14T00:01:50.760Z,9.10
2019-02-14T00:03:25.409Z,9.10
2019-02-14T00:05:00.045Z,9.00
2019-02-14T00:06:34.622Z,9.00
2019-02-14T00:08:09.570Z,8.90
2019-02-14T00:09:44.246Z,8.90
2019-02-14T00:11:18.867Z,8.90
2019-02-14T00:12:53.417Z,8.80
2019-02-14T00:14:27.982Z,8.80
2019-02-14T00:16:02.589Z,8.90
2019-02-14T00:17:37.209Z,8.80
2019-02-14T00:19:11.735Z,8.80
2019-02-14T00:20:46.341Z,8.70
2019-02-14T00:22:20.923Z,8.70
2019-02-14T00:23:55.482Z,8.80
2019-02-14T00:25:30.058Z,8.70
2019-02-14T00:27:04.613Z,8.60
2019-02-14T00:28:39.334Z,8.60
2019-02-14T00:30:14.241Z,8.50
2019-02-14T00:31:49.093Z,8.50
2019-02-14T00:33:23.985Z,8.40
2019-02-14T00:34:58.701Z,8.40
2019-02-14T00:36:33.430Z,8.40
2019-02-14T00:38:08.291Z,8.40
2019-02-14T00:39:43.117Z,8.40
2019-02-14T00:41:17.841Z,8.40
2019-02-14T00:42:52.587Z,8.40
2019-02-14T00:44:27.306Z,8.40
2019-02-14T00:46:02.026Z,8.50
2019-02-14T00:47:36.749Z,8.40
2019-02-14T00:49:11.486Z,8.40
2019-02-14T00:50:46.201Z,8.50
2019-02-14T00:52:21.930Z,8.40
2019-02-14T00:53:56.741Z,8.50
2019-02-14T00:55:31.487Z,8.50
2019-02-14T00:57:06.202Z,8.40
2019-02-14T00:58:40.925Z,8.50
2019-02-14T01:00:15.809Z,8.40
2019-02-14T01:01:50.537Z,8.40
2019-02-14T01:03:25.245Z,8.40
2019-02-14T01:04:59.970Z,8.30
2019-02-14T01:06:34.877Z,8.30
2019-02-14T01:08:09.696Z,8.30
2019-02-14T01:09:44.413Z,8.30
2019-02-14T01:11:19.325Z,8.30
2019-02-14T01:12:55.653Z,8.20
2019-02-14T01:14:30.584Z,8.30
2019-02-14T01:16:05.542Z,8.30
2019-02-14T01:17:40.289Z,8.30
2019-02-14T01:19:15.564Z,8.20
2019-02-14T01:20:50.501Z,8.20
2019-02-14T01:22:25.243Z,8.20
2019-02-14T01:24:00.026Z,8.10
2019-02-14T01:25:34.785Z,8.20
2019-02-14T01:27:09.625Z,8.20
2019-02-14T01:28:44.458Z,8.20
2019-02-14T01:30:19.418Z,8.20
2019-02-14T01:31:54.213Z,8.20
2019-02-14T01:33:29.013Z,8.10
2019-02-14T01:35:04.060Z,8.10
2019-02-14T01:36:38.811Z,8.00
2019-02-14T01:38:13.773Z,8.00
2019-02-14T01:39:48.609Z,8.10
2019-02-14T01:41:23.412Z,8.00
2019-02-14T01:42:58.169Z,7.90
2019-02-14T01:44:32.985Z,7.90
2019-02-14T01:46:07.886Z,7.80
2019-02-14T01:47:42.638Z,7.80
2019-02-14T01:49:17.389Z,7.80
2019-02-14T01:50:52.212Z,7.70
2019-02-14T01:52:27.037Z,7.80
2019-02-14T01:54:01.770Z,7.70
2019-02-14T01:55:36.517Z,7.60
2019-02-14T01:57:11.444Z,7.60
2019-02-14T01:58:46.195Z,7.60
2019-02-14T02:00:21.014Z,7.60
2019-02-14T02:01:56.094Z,7.60
2019-02-14T02:03:30.834Z,7.50
2019-02-14T02:05:05.922Z,7.50
2019-02-14T02:06:40.746Z,7.60
2019-02-14T02:08:15.597Z,7.50
2019-02-14T02:09:50.409Z,7.50
2019-02-14T02:11:26.241Z,7.40
2019-02-14T02:13:01.061Z,7.50
2019-02-14T02:14:35.941Z,7.50
2019-02-14T02:16:10.729Z,7.50
2019-02-14T02:17:45.470Z,7.40
2019-02-14T02:19:20.264Z,7.40
2019-02-14T02:20:55.362Z,7.50
2019-02-14T02:22:30.167Z,7.40
2019-02-14T02:24:05.337Z,7.30
2019-02-14T02:25:40.202Z,7.30
2019-02-14T02:27:15.097Z,7.40
2019-02-14T02:28:49.881Z,7.30
2019-02-14T02:30:24.772Z,7.40
2019-02-14T02:31:59.514Z,7.40
2019-02-14T02:33:34.373Z,7.40
2019-02-14T02:35:09.251Z,7.30
2019-02-14T02:36:44.017Z,7.40
2019-02-14T02:38:18.789Z,7.40
2019-02-14T02:39:53.653Z,7.30
2019-02-14T02:41:28.454Z,7.40
2019-02-14T02:43:03.198Z,7.30
2019-02-14T02:44:37.999Z,7.10
2019-02-14T02:46:12.714Z,7.20
2019-02-14T02:47:47.466Z,7.20
2019-02-14T02:49:22.189Z,7.30
2019-02-14T02:50:57.017Z,7.30
2019-02-14T02:52:31.810Z,7.30
2019-02-14T02:54:06.676Z,7.30
2019-02-14T02:55:41.490Z,7.30
2019-02-14T02:57:16.245Z,7.30
2019-02-14T02:58:51.037Z,7.30
2019-02-14T03:00:25.832Z,7.30
2019-02-14T03:02:00.701Z,7.20
2019-02-14T03:03:35.472Z,7.20
2019-02-14T03:05:11.707Z,7.20
2019-02-14T03:06:46.541Z,7.20
2019-02-14T03:08:21.278Z,7.20
2019-02-14T03:09:56.007Z,7.20
2019-02-14T03:11:30.821Z,7.20
2019-02-14T03:13:05.575Z,7.20
2019-02-14T03:14:40.308Z,7.30
2019-02-14T03:16:15.223Z,7.00
2019-02-14T03:17:49.950Z,7.00
2019-02-14T03:19:24.686Z,7.00
2019-02-14T03:20:59.429Z,7.00
2019-02-14T03:22:34.154Z,7.00
2019-02-14T03:24:08.946Z,7.10
2019-02-14T03:25:43.705Z,7.00
2019-02-14T03:27:18.604Z,7.00
2019-02-14T03:28:53.405Z,6.90
2019-02-14T03:30:28.160Z,6.80
2019-02-14T03:32:02.982Z,6.90
2019-02-14T03:33:37.808Z,6.90
2019-02-14T03:35:12.879Z,6.90
2019-02-14T03:36:47.730Z,6.90
2019-02-14T03:38:23.498Z,6.90
2019-02-14T03:39:58.338Z,6.90
2019-02-14T03:41:33.080Z,6.90
2019-02-14T03:43:07.906Z,6.80
2019-02-14T03:44:43.650Z,6.80
2019-02-14T03:46:18.390Z,6.80
2019-02-14T03:47:54.285Z,6.80
2019-02-14T03:49:29.103Z,6.80
2019-02-14T03:51:03.848Z,6.80
2019-02-14T03:52:38.970Z,6.70
2019-02-14T03:54:13.854Z,6.70
2019-02-14T03:55:49.557Z,6.60
2019-02-14T03:57:24.307Z,6.60
2019-02-14T03:58:59.097Z,6.70
2019-02-14T04:00:33.865Z,6.70
2019-02-14T04:02:08.682Z,6.70
2019-02-14T04:03:43.409Z,6.70
2019-02-14T04:05:18.146Z,6.70
2019-02-14T04:06:52.891Z,6.70
2019-02-14T04:08:27.690Z,6.70
2019-02-14T04:10:02.564Z,6.70
2019-02-14T04:11:38.346Z,6.70
2019-02-14T04:13:13.079Z,6.60
2019-02-14T04:14:47.886Z,6.50
2019-02-14T04:16:22.712Z,6.40
2019-02-14T04:17:57.525Z,6.30
2019-02-14T04:19:32.318Z,6.40
2019-02-14T04:21:07.038Z,6.50
2019-02-14T04:22:41.785Z,6.50
2019-02-14T04:24:16.558Z,6.50
2019-02-14T04:25:51.381Z,6.40
2019-02-14T04:27:26.119Z,6.50
2019-02-14T04:29:00.838Z,6.50
2019-02-14T04:30:35.649Z,6.50
2019-02-14T04:32:10.449Z,6.50
2019-02-14T04:33:45.210Z,6.50
2019-02-14T04:35:19.961Z,6.50
2019-02-14T04:36:55.881Z,6.40
2019-02-14T04:38:31.739Z,6.40
2019-02-14T04:40:08.346Z,6.50
2019-02-14T04:41:44.182Z,6.40
2019-02-14T04:43:18.910Z,6.30
2019-02-14T04:44:53.647Z,6.40
2019-02-14T04:46:28.471Z,6.40
2019-02-14T04:48:04.420Z,6.30
2019-02-14T04:49:41.962Z,6.40
2019-02-14T04:51:16.550Z,6.40
2019-02-14T04:52:51.290Z,6.30
2019-02-14T04:54:26.021Z,6.30
2019-02-14T04:56:00.746Z,6.30
2019-02-14T04:57:35.522Z,6.30
2019-02-14T04:59:10.315Z,6.30
2019-02-14T05:00:45.054Z,6.30
2019-02-14T05:02:19.827Z,6.40
2019-02-14T05:03:54.542Z,6.40
2019-02-14T05:05:29.276Z,6.40
2019-02-14T05:07:04.329Z,6.20
2019-02-14T05:08:39.170Z,6.20
2019-02-14T05:10:13.949Z,6.30
2019-02-14T05:11:58.702Z,6.30
2019-02-14T05:13:33.530Z,6.30
2019-02-14T05:15:08.722Z,6.30
2019-02-14T05:16:43.437Z,6.30
2019-02-14T05:18:18.179Z,6.40
2019-02-14T05:19:53.031Z,6.30
2019-02-14T05:21:27.784Z,6.30
2019-02-14T05:23:02.610Z,6.20
2019-02-14T05:24:37.475Z,6.30
2019-02-14T05:26:12.353Z,6.30
2019-02-14T05:27:47.301Z,6.30
2019-02-14T05:29:22.041Z,6.30
2019-02-14T05:30:56.822Z,6.30
2019-02-14T05:32:31.592Z,6.30
2019-02-14T05:34:06.322Z,6.30
2019-02-14T05:35:41.081Z,6.40
2019-02-14T05:37:15.970Z,6.40
2019-02-14T05:38:50.749Z,6.40
2019-02-14T05:40:25.494Z,6.30
2019-02-14T05:42:00.305Z,6.40
2019-02-14T05:43:36.029Z,6.40
2019-02-14T05:45:11.428Z,6.40
2019-02-14T05:46:47.210Z,6.30
2019-02-14T05:48:22.137Z,6.30
2019-02-14T05:49:57.982Z,6.40
2019-02-14T05:51:32.705Z,6.30
2019-02-14T05:53:07.521Z,6.20
2019-02-14T05:54:42.329Z,6.30
2019-02-14T05:56:17.133Z,6.10
2019-02-14T05:57:51.878Z,6.20
2019-02-14T05:59:26.665Z,6.10
2019-02-14T06:01:01.883Z,6.10
2019-02-14T06:02:36.736Z,6.20
2019-02-14T06:04:11.603Z,6.30
2019-02-14T06:05:46.362Z,6.30
2019-02-14T06:07:21.117Z,6.30
2019-02-14T06:08:55.882Z,6.20
2019-02-14T06:10:30.611Z,6.30
2019-02-14T06:12:05.493Z,6.30
2019-02-14T06:13:40.238Z,6.20
2019-02-14T06:15:15.154Z,6.30
2019-02-14T06:16:51.302Z,6.30
2019-02-14T06:18:26.045Z,6.30
2019-02-14T06:20:00.886Z,6.30
2019-02-14T06:21:35.698Z,6.30
2019-02-14T06:23:10.489Z,6.30
2019-02-14T06:24:45.241Z,6.10
2019-02-14T06:26:20.085Z,6.20
2019-02-14T06:27:54.815Z,6.20
2019-02-14T06:29:29.602Z,6.20
2019-02-14T06:31:04.345Z,6.10
2019-02-14T06:32:39.466Z,6.10
2019-02-14T06:34:14.198Z,6.10
2019-02-14T06:35:49.035Z,6.00
2019-02-14T06:37:24.838Z,6.10
2019-02-14T06:38:59.561Z,6.00
2019-02-14T06:40:34.406Z,5.90
2019-02-14T06:42:09.158Z,6.00
2019-02-14T06:43:43.994Z,6.00
2019-02-14T06:45:19.003Z,6.10
2019-02-14T06:46:53.804Z,6.00
2019-02-14T06:48:28.545Z,5.90
2019-02-14T06:50:03.461Z,6.00
2019-02-14T06:51:38.241Z,5.90
2019-02-14T06:53:13.132Z,5.90
2019-02-14T06:54:48.165Z,5.90
2019-02-14T06:56:22.973Z,6.00
2019-02-14T06:57:57.759Z,5.90
2019-02-14T06:59:32.501Z,5.90
2019-02-14T07:01:07.310Z,5.90
2019-02-14T07:02:42.120Z,5.90
2019-02-14T07:04:16.947Z,6.00
2019-02-14T07:05:51.816Z,6.10
2019-02-14T07:07:26.561Z,6.00
2019-02-14T07:09:01.397Z,6.00
2019-02-14T07:10:37.774Z,6.10
2019-02-14T07:12:12.574Z,6.00
2019-02-14T07:13:47.373Z,6.00
2019-02-14T07:15:22.190Z,6.10
2019-02-14T07:16:56.976Z,6.20
2019-02-14T07:18:31.727Z,6.10
2019-02-14T07:20:08.957Z,6.10
2019-02-14T07:21:43.786Z,6.10
2019-02-14T07:23:18.553Z,6.20
2019-02-14T07:24:53.334Z,6.20
2019-02-14T07:26:28.084Z,6.30
2019-02-14T07:28:02.828Z,6.20
2019-02-14T07:29:37.643Z,6.20
2019-02-14T07:31:12.381Z,6.20
2019-02-14T07:32:47.179Z,6.20
2019-02-14T07:34:22.080Z,6.20
2019-02-14T07:35:56.894Z,6.20
2019-02-14T07:37:31.653Z,6.20
2019-02-14T07:39:07.792Z,6.30
2019-02-14T07:40:42.605Z,6.30
2019-02-14T07:42:17.411Z,6.20
2019-02-14T07:43:52.173Z,6.30
2019-02-14T07:45:27.140Z,6.20
2019-02-14T07:47:01.948Z,6.30
2019-02-14T07:48:36.782Z,6.40
2019-02-14T07:50:11.962Z,6.40
2019-02-14T07:51:48.519Z,6.30
2019-02-14T07:53:23.239Z,6.30
2019-02-14T07:54:57.997Z,6.30
2019-02-14T07:56:32.780Z,6.40
2019-02-14T07:58:07.511Z,6.30
2019-02-14T07:59:42.302Z,6.50
2019-02-14T08:01:17.110Z,6.50
2019-02-14T08:02:51.866Z,6.50
2019-02-14T08:04:26.610Z,6.60
2019-02-14T08:06:01.426Z,6.70
2019-02-14T08:07:36.369Z,6.60
2019-02-14T08:09:11.138Z,6.50
2019-02-14T08:10:46.033Z,6.50
2019-02-14T08:12:20.766Z,6.70
2019-02-14T08:13:55.500Z,6.80
2019-02-14T08:15:30.545Z,6.80
2019-02-14T08:17:05.423Z,6.80
2019-02-14T08:18:40.161Z,6.90
2019-02-14T08:20:15.367Z,6.90
2019-02-14T08:21:50.287Z,7.00
2019-02-14T08:23:26.139Z,7.00
2019-02-14T08:25:00.990Z,7.00
2019-02-14T08:26:35.871Z,6.90
2019-02-14T08:28:10.999Z,7.10
2019-02-14T08:29:45.718Z,7.20
2019-02-14T08:31:20.530Z,7.30
2019-02-14T08:32:55.262Z,7.40
2019-02-14T08:34:30.062Z,7.50
2019-02-14T08:36:04.927Z,7.60
2019-02-14T08:37:45.712Z,7.80
2019-02-14T08:39:16.238Z,7.80
2019-02-14T08:40:51.056Z,7.90
2019-02-14T08:42:25.778Z,8.00
2019-02-14T08:44:00.509Z,8.10
2019-02-14T08:45:35.324Z,8.10
2019-02-14T08:47:10.273Z,8.00
2019-02-14T08:48:45.169Z,7.80
2019-02-14T08:50:19.966Z,7.90
2019-02-14T08:51:54.850Z,7.90
2019-02-14T08:53:29.577Z,8.00
2019-02-14T08:55:05.197Z,8.10
2019-02-14T08:56:39.936Z,8.00
2019-02-14T08:58:14.818Z,8.00
2019-02-14T08:59:50.551Z,8.10
2019-02-14T09:01:25.366Z,8.20
2019-02-14T09:03:00.130Z,8.20
2019-02-14T09:04:34.921Z,8.20
2019-02-14T09:06:09.689Z,8.20
2019-02-14T09:07:44.552Z,8.20
2019-02-14T09:09:19.435Z,8.30
2019-02-14T09:10:54.281Z,8.30
2019-02-14T09:12:29.061Z,8.30
2019-02-14T09:14:03.916Z,8.30
2019-02-14T09:15:38.646Z,8.30
2019-02-14T09:17:13.482Z,8.20
2019-02-14T09:18:48.348Z,8.40
2019-02-14T09:20:23.229Z,8.40
2019-02-14T09:21:58.037Z,8.60
2019-02-14T09:23:32.825Z,8.80
2019-02-14T09:25:07.807Z,9.10
2019-02-14T09:26:42.766Z,9.40
2019-02-14T09:28:17.585Z,9.80
2019-02-14T09:29:52.578Z,10.20
2019-02-14T09:31:27.329Z,10.50
2019-02-14T09:33:02.298Z,10.80
2019-02-14T09:34:37.046Z,11.10
2019-02-14T09:36:11.852Z,11.50
2019-02-14T09:37:46.643Z,11.70
2019-02-14T09:39:21.386Z,11.80
2019-02-14T09:40:56.229Z,12.10
2019-02-14T09:42:30.958Z,12.30
2019-02-14T09:44:05.856Z,12.30
2019-02-14T09:45:40.669Z,12.70
2019-02-14T09:47:15.475Z,12.70
2019-02-14T09:48:50.370Z,12.90
2019-02-14T09:50:25.178Z,13.10
2019-02-14T09:51:59.994Z,13.50
2019-02-14T09:53:34.805Z,13.80
2019-02-14T09:55:10.322Z,14.00
2019-02-14T09:56:45.130Z,13.90
2019-02-14T09:58:19.909Z,14.10
2019-02-14T09:59:54.712Z,14.20
2019-02-14T10:01:29.499Z,14.20
2019-02-14T10:03:04.373Z,14.30
2019-02-14T10:04:39.130Z,14.30
2019-02-14T10:06:13.847Z,14.80
2019-02-14T10:07:48.699Z,14.80
2019-02-14T10:09:23.560Z,15.30
2019-02-14T10:10:58.437Z,15.20
2019-02-14T10:12:33.167Z,14.60
2019-02-14T10:14:07.918Z,14.50
2019-02-14T10:15:43.069Z,14.50
2019-02-14T10:17:22.290Z,14.70
2019-02-14T10:18:54.439Z,14.60
2019-02-14T10:20:29.355Z,14.50
2019-02-14T10:22:04.195Z,14.50
2019-02-14T10:23:38.914Z,14.60
2019-02-14T10:25:13.878Z,14.30
2019-02-14T10:26:51.451Z,14.00
2019-02-14T10:28:26.306Z,13.90
2019-02-14T10:30:01.116Z,14.10
2019-02-14T10:31:35.853Z,13.80
2019-02-14T10:33:10.701Z,13.90
2019-02-14T10:34:45.481Z,14.00
2019-02-14T10:36:20.313Z,14.20
2019-02-14T10:37:55.210Z,14.30
2019-02-14T10:39:30.045Z,14.20
2019-02-14T10:41:04.833Z,14.30
2019-02-14T10:42:39.796Z,14.50
2019-02-14T10:44:14.628Z,14.60
2019-02-14T10:45:49.733Z,14.80
2019-02-14T10:47:24.437Z,14.30
2019-02-14T10:48:59.229Z,14.20
2019-02-14T10:50:33.973Z,14.50
2019-02-14T10:52:09.200Z,14.60
2019-02-14T10:53:44.009Z,14.60
2019-02-14T10:55:18.907Z,14.70
2019-02-14T10:56:53.701Z,14.50
2019-02-14T10:58:28.446Z,14.30
2019-02-14T11:00:04.226Z,14.10
2019-02-14T11:01:42.323Z,14.10
2019-02-14T11:03:17.148Z,14.00
2019-02-14T11:04:51.955Z,13.90
2019-02-14T11:06:26.838Z,13.60
2019-02-14T11:08:01.617Z,13.70
2019-02-14T11:09:36.506Z,13.70
2019-02-14T11:11:11.361Z,13.50
2019-02-14T11:12:46.244Z,13.40
2019-02-14T11:14:28.965Z,13.50
2019-02-14T11:15:57.793Z,13.60
2019-02-14T11:17:32.519Z,13.20
2019-02-14T11:19:07.592Z,13.30
2019-02-14T11:20:42.470Z,13.30
2019-02-14T11:22:17.186Z,13.40
2019-02-14T11:23:51.925Z,13.40
2019-02-14T11:25:29.137Z,13.40
2019-02-14T11:27:03.945Z,13.10
2019-02-14T11:28:38.761Z,13.20
2019-02-14T11:30:15.736Z,13.20
2019-02-14T11:31:50.550Z,13.10
2019-02-14T11:33:25.334Z,13.00
2019-02-14T11:35:00.230Z,13.00
2019-02-14T11:36:35.041Z,12.90
2019-02-14T11:38:09.890Z,12.80
2019-02-14T11:39:44.627Z,12.80
2019-02-14T11:41:19.357Z,12.80
2019-02-14T11:42:54.270Z,12.80
2019-02-14T11:44:29.056Z,12.80
2019-02-14T11:46:03.789Z,12.90
2019-02-14T11:47:38.538Z,12.70
2019-02-14T11:49:13.282Z,12.70
2019-02-14T11:50:49.032Z,12.80
2019-02-14T11:52:23.819Z,12.70
2019-02-14T11:53:58.754Z,12.50
2019-02-14T11:55:33.582Z,12.50
2019-02-14T11:57:08.454Z,12.30
2019-02-14T11:58:43.277Z,12.40
2019-02-14T12:00:20.993Z,12.40
2019-02-14T12:01:55.813Z,12.40
2019-02-14T12:03:30.610Z,12.40
2019-02-14T12:05:05.758Z,12.40
2019-02-14T12:06:40.634Z,12.40
2019-02-14T12:08:15.392Z,12.20
2019-02-14T12:09:50.245Z,12.20
2019-02-14T12:11:24.999Z,12.20
2019-02-14T12:12:59.733Z,12.10
2019-02-14T12:14:34.526Z,12.20
2019-02-14T12:16:09.261Z,12.10
2019-02-14T12:17:43.986Z,12.10
2019-02-14T12:19:18.718Z,12.00
2019-02-14T12:20:53.437Z,12.00
2019-02-14T12:22:28.275Z,12.00
2019-02-14T12:24:02.978Z,12.10
2019-02-14T12:25:37.698Z,12.00
2019-02-14T12:27:12.509Z,12.00
2019-02-14T12:28:47.318Z,12.00
2019-02-14T12:30:22.122Z,12.00
2019-02-14T12:31:56.965Z,12.10
2019-02-14T12:33:31.691Z,12.00
2019-02-14T12:35:06.781Z,12.10
2019-02-14T12:36:42.491Z,12.20
2019-02-14T12:38:17.360Z,12.10
2019-02-14T12:39:52.197Z,12.10
2019-02-14T12:41:26.951Z,12.10
2019-02-14T12:43:01.687Z,12.10
2019-02-14T12:44:36.458Z,12.10
2019-02-14T12:46:12.181Z,12.10
2019-02-14T12:47:46.983Z,12.10
2019-02-14T12:49:21.823Z,12.10
2019-02-14T12:50:56.759Z,12.20
2019-02-14T12:52:31.786Z,12.10
2019-02-14T12:54:06.505Z,12.20
2019-02-14T12:55:41.220Z,12.20
2019-02-14T12:57:15.975Z,12.10
2019-02-14T12:58:50.761Z,12.10
2019-02-14T13:00:27.109Z,12.10
2019-02-14T13:02:01.866Z,12.10
2019-02-14T13:03:36.669Z,12.10
2019-02-14T13:05:11.398Z,12.10
2019-02-14T13:06:46.158Z,12.00
2019-02-14T13:08:20.959Z,12.00
2019-02-14T13:09:55.770Z,12.10
2019-02-14T13:11:30.633Z,12.10
2019-02-14T13:13:05.354Z,12.20
2019-02-14T13:14:40.105Z,12.10
2019-02-14T13:16:14.868Z,12.10
2019-02-14T13:17:49.721Z,12.10
2019-02-14T13:19:24.515Z,12.10
2019-02-14T13:20:59.270Z,12.10
2019-02-14T13:22:34.113Z,12.10
2019-02-14T13:24:08.911Z,12.10
2019-02-14T13:25:43.709Z,12.20
2019-02-14T13:27:18.570Z,12.20
2019-02-14T13:28:53.330Z,12.20
2019-02-14T13:30:28.223Z,12.20
2019-02-14T13:32:03.293Z,12.20
2019-02-14T13:33:38.032Z,12.20
2019-02-14T13:35:13.089Z,12.20
2019-02-14T13:36:47.827Z,12.20
2019-02-14T13:38:22.631Z,12.20
2019-02-14T13:39:58.579Z,12.20
2019-02-14T13:41:33.445Z,12.10
2019-02-14T13:43:10.303Z,12.20
2019-02-14T13:44:44.734Z,12.20
2019-02-14T13:46:19.473Z,12.20
2019-02-14T13:47:54.365Z,12.20
2019-02-14T13:49:29.429Z,12.30
2019-02-14T13:51:04.241Z,12.30
2019-02-14T13:52:39.054Z,12.30
2019-02-14T13:54:13.874Z,12.30
2019-02-14T13:55:48.633Z,12.30
2019-02-14T13:57:23.401Z,12.30
2019-02-14T13:58:58.328Z,12.30
2019-02-14T14:00:33.110Z,12.30
2019-02-14T14:02:07.941Z,12.30
2019-02-14T14:03:42.782Z,12.30
2019-02-14T14:05:17.804Z,12.20
2019-02-14T14:06:54.534Z,12.20
2019-02-14T14:08:29.117Z,12.30
2019-02-14T14:10:04.217Z,12.20
2019-02-14T14:11:39.015Z,12.20
2019-02-14T14:13:13.739Z,12.20
2019-02-14T14:14:48.533Z,12.20
2019-02-14T14:16:23.329Z,12.20
2019-02-14T14:17:58.089Z,12.20
2019-02-14T14:19:32.934Z,12.20
2019-02-14T14:21:07.673Z,12.20
2019-02-14T14:22:42.605Z,12.10
2019-02-14T14:24:17.452Z,12.20
2019-02-14T14:25:52.266Z,12.20
2019-02-14T14:27:27.026Z,12.10
2019-02-14T14:29:01.775Z,12.10
2019-02-14T14:30:36.685Z,12.10
2019-02-14T14:32:11.434Z,12.10
2019-02-14T14:33:46.398Z,12.20
2019-02-14T14:35:21.105Z,12.10
2019-02-14T14:36:55.829Z,12.10
2019-02-14T14:38:30.546Z,12.10
2019-02-14T14:40:06.159Z,12.10
2019-02-14T14:41:41.006Z,12.10
2019-02-14T14:43:38.130Z,12.10
2019-02-14T14:45:15.375Z,12.10
2019-02-14T14:46:54.950Z,12.00
2019-02-14T14:48:35.581Z,12.00
2019-02-14T14:50:10.541Z,12.00
2019-02-14T14:51:45.345Z,12.00
2019-02-14T14:53:20.193Z,11.90
2019-02-14T14:54:55.069Z,11.90
2019-02-14T14:56:29.872Z,11.90
2019-02-14T14:58:04.599Z,11.80
2019-02-14T14:59:39.363Z,11.90
2019-02-14T15:01:14.282Z,11.90
2019-02-14T15:02:49.136Z,11.80
2019-02-14T15:04:23.940Z,11.80
2019-02-14T15:05:58.699Z,11.80
2019-02-14T15:07:33.442Z,11.80
2019-02-14T15:09:08.305Z,11.80
2019-02-14T15:10:43.103Z,11.80
2019-02-14T15:12:17.899Z,11.80
2019-02-14T15:13:52.716Z,11.80
2019-02-14T15:15:27.566Z,11.80
2019-02-14T15:17:02.339Z,11.70
2019-02-14T15:18:37.057Z,11.70
2019-02-14T15:20:11.981Z,11.70
2019-02-14T15:21:46.781Z,11.70
2019-02-14T15:23:21.520Z,11.60
2019-02-14T15:24:56.294Z,11.60
2019-02-14T15:26:31.057Z,11.70
2019-02-14T15:28:05.931Z,11.70
2019-02-14T15:29:40.741Z,11.70
2019-02-14T15:31:15.681Z,11.60
2019-02-14T15:32:50.431Z,11.60
2019-02-14T15:34:25.230Z,11.60
2019-02-14T15:35:59.978Z,11.60
2019-02-14T15:37:34.822Z,11.50
2019-02-14T15:39:22.775Z,11.50
2019-02-14T15:40:57.730Z,11.50
2019-02-14T15:42:32.529Z,11.50
2019-02-14T15:44:07.303Z,11.50
2019-02-14T15:45:42.135Z,11.50
2019-02-14T15:47:16.940Z,11.50
2019-02-14T15:48:51.782Z,11.40
2019-02-14T15:50:27.893Z,11.40
2019-02-14T15:52:05.391Z,11.40
2019-02-14T15:53:41.268Z,11.40
2019-02-14T15:55:16.153Z,11.40
2019-02-14T15:56:51.425Z,11.30
2019-02-14T15:58:29.113Z,11.40
2019-02-14T16:00:07.841Z,11.30
2019-02-14T16:01:44.286Z,11.30
2019-02-14T16:03:19.593Z,11.20
2019-02-14T16:04:54.934Z,11.20
2019-02-14T16:06:30.319Z,11.20
2019-02-14T16:08:05.329Z,11.20
2019-02-14T16:09:41.255Z,11.20
2019-02-14T16:11:16.730Z,11.20
2019-02-14T16:12:51.509Z,11.20
2019-02-14T16:14:27.797Z,11.20
2019-02-14T16:16:03.401Z,11.20
2019-02-14T16:17:38.776Z,11.30
2019-02-14T16:19:14.631Z,11.20
2019-02-14T16:20:51.217Z,11.20
2019-02-14T16:22:29.964Z,11.10
2019-02-14T16:24:05.600Z,11.00
2019-02-14T16:25:43.672Z,11.00
2019-02-14T16:27:22.439Z,10.90
2019-02-14T16:28:59.323Z,10.90
2019-02-14T16:30:34.521Z,10.90
2019-02-14T16:32:11.913Z,10.90
2019-02-14T16:33:48.137Z,10.80
2019-02-14T16:35:24.294Z,10.80
2019-02-14T16:37:21.535Z,10.70
2019-02-14T16:38:58.805Z,10.70
2019-02-14T16:40:38.688Z,10.70
2019-02-14T16:42:12.339Z,10.60
2019-02-14T16:43:47.518Z,10.60
2019-02-14T16:45:23.377Z,10.60
2019-02-14T16:47:01.188Z,10.50
2019-02-14T16:48:37.674Z,10.50
2019-02-14T16:50:12.862Z,10.40
2019-02-14T16:51:49.175Z,10.40
2019-02-14T16:53:24.762Z,10.40
2019-02-14T16:55:00.305Z,10.40
2019-02-14T16:56:36.791Z,10.40
2019-02-14T16:58:12.370Z,10.40
2019-02-14T16:59:48.295Z,10.30
2019-02-14T17:01:23.727Z,10.30
2019-02-14T17:02:59.422Z,10.20
2019-02-14T17:04:34.830Z,10.20
2019-02-14T17:06:09.800Z,10.20
2019-02-14T17:07:45.362Z,10.10
2019-02-14T17:09:20.665Z,10.00
2019-02-14T17:10:57.044Z,10.00
2019-02-14T17:12:32.187Z,9.90
2019-02-14T17:14:06.923Z,9.90
2019-02-14T17:15:41.666Z,9.80
2019-02-14T17:17:16.474Z,9.80
2019-02-14T17:18:51.213Z,9.70
2019-02-14T17:20:25.906Z,9.70
2019-02-14T17:22:00.679Z,9.70
2019-02-14T17:23:35.418Z,9.60
2019-02-14T17:25:10.190Z,9.50
2019-02-14T17:26:45.903Z,9.50
2019-02-14T17:28:21.338Z,9.50
2019-02-14T17:29:56.848Z,9.40
2019-02-14T17:31:32.034Z,9.40
2019-02-14T17:33:08.490Z,9.30
2019-02-14T17:34:43.946Z,9.30
2019-02-14T17:36:19.554Z,9.30
2019-02-14T17:37:55.424Z,9.30
2019-02-14T17:39:31.143Z,9.20
2019-02-14T17:41:06.386Z,9.20
2019-02-14T17:42:42.077Z,9.20
2019-02-14T17:44:17.647Z,9.20
2019-02-14T17:45:52.902Z,9.10
2019-02-14T17:47:28.945Z,9.10
2019-02-14T17:49:04.738Z,9.10
2019-02-14T17:50:40.333Z,9.00
2019-02-14T17:52:16.850Z,9.00
2019-02-14T17:53:52.112Z,9.00
2019-02-14T17:55:27.989Z,9.00
2019-02-14T17:57:03.723Z,8.90
2019-02-14T17:58:39.518Z,8.90
2019-02-14T18:00:14.910Z,8.90
2019-02-14T18:01:51.759Z,8.90
2019-02-14T18:03:27.873Z,8.90
2019-02-14T18:05:03.927Z,8.80
2019-02-14T18:06:39.522Z,8.80
2019-02-14T18:08:15.372Z,8.80
2019-02-14T18:10:14.268Z,8.80
2019-02-14T18:11:51.558Z,8.70
2019-02-14T18:13:27.147Z,8.70
2019-02-14T18:17:43.013Z,8.60
2019-02-14T18:19:17.741Z,8.60
2019-02-14T18:20:52.483Z,8.50
2019-02-14T18:22:27.307Z,8.50
2019-02-14T18:24:02.142Z,8.50
2019-02-14T18:25:37.037Z,8.50
2019-02-14T18:27:11.761Z,8.40
2019-02-14T18:29:30.417Z,8.40
2019-02-14T18:31:07.365Z,8.40
2019-02-14T18:32:42.562Z,8.30
2019-02-14T18:34:17.301Z,8.30
2019-02-14T18:35:52.021Z,8.30
2019-02-14T18:37:26.794Z,8.30
2019-02-14T18:39:01.566Z,8.30
2019-02-14T18:40:38.633Z,8.30
2019-02-14T18:42:13.994Z,8.30
2019-02-14T18:43:49.522Z,8.30
2019-02-14T18:45:25.026Z,8.30
2019-02-14T18:47:21.054Z,8.30
2019-02-14T18:48:56.209Z,8.30
2019-02-14T18:50:32.543Z,8.20
2019-02-14T18:52:07.762Z,8.30
2019-02-14T18:53:43.154Z,8.20
2019-02-14T18:55:18.499Z,8.20
2019-02-14T18:56:54.261Z,8.10
2019-02-14T18:58:29.314Z,8.10
2019-02-14T19:00:09.044Z,8.10
2019-02-14T19:01:44.228Z,8.00
2019-02-14T19:03:19.486Z,8.10
2019-02-14T19:04:55.085Z,8.00
2019-02-14T19:06:30.109Z,8.00
2019-02-14T19:08:05.463Z,8.00
2019-02-14T19:09:40.901Z,8.00
2019-02-14T19:11:16.563Z,8.00
2019-02-14T19:13:11.940Z,8.00
2019-02-14T19:14:47.968Z,8.00
2019-02-14T19:16:23.890Z,7.90
2019-02-14T19:17:58.907Z,7.90
2019-02-14T19:19:34.860Z,7.90
2019-02-14T19:21:10.707Z,7.90
2019-02-14T19:22:45.993Z,7.80
2019-02-14T19:24:21.465Z,7.80
2019-02-14T19:25:57.092Z,7.80
2019-02-14T19:27:32.656Z,7.80
2019-02-14T19:29:08.553Z,7.80
2019-02-14T19:30:43.575Z,7.70
2019-02-14T19:32:19.001Z,7.70
2019-02-14T19:33:56.901Z,7.70
2019-02-14T19:35:31.625Z,7.70
2019-02-14T19:37:06.343Z,7.60
2019-02-14T19:38:41.109Z,7.70
2019-02-14T19:40:15.839Z,7.70
2019-02-14T19:41:50.987Z,7.60
2019-02-14T19:43:26.893Z,7.60
2019-02-14T19:45:02.731Z,7.70
2019-02-14T19:46:38.158Z,7.60
2019-02-14T19:48:13.516Z,7.60
2019-02-14T19:49:49.077Z,7.50
2019-02-14T19:51:24.301Z,7.60
2019-02-14T19:52:59.706Z,7.50
2019-02-14T19:54:35.590Z,7.50
2019-02-14T19:56:10.948Z,7.50
2019-02-14T19:57:46.390Z,7.50
2019-02-14T19:59:21.790Z,7.50
2019-02-14T20:00:57.783Z,7.40
2019-02-14T20:02:33.433Z,7.40
2019-02-14T20:04:09.604Z,7.40
2019-02-14T20:05:45.131Z,7.40
2019-02-14T20:07:20.803Z,7.40
2019-02-14T20:08:56.053Z,7.30
2019-02-14T20:10:31.389Z,7.40
2019-02-14T20:12:06.796Z,7.30
2019-02-14T20:13:49.330Z,7.30
2019-02-14T20:15:19.946Z,7.30
2019-02-14T20:16:55.870Z,7.30
2019-02-14T20:18:31.397Z,7.40
2019-02-14T20:20:08.192Z,7.30
2019-02-14T20:21:43.970Z,7.30
2019-02-14T20:23:19.206Z,7.30
2019-02-14T20:24:55.002Z,7.20
2019-02-14T20:26:30.325Z,7.30
2019-02-14T20:28:05.930Z,7.20
2019-02-14T20:29:41.025Z,7.20
2019-02-14T20:31:16.282Z,7.10
2019-02-14T20:32:52.399Z,7.10
2019-02-14T20:34:28.121Z,7.10
2019-02-14T20:36:04.814Z,7.20
2019-02-14T20:37:40.704Z,7.20
2019-02-14T20:39:16.627Z,7.10
2019-02-14T20:40:51.752Z,7.10
2019-02-14T20:42:27.018Z,7.10
2019-02-14T20:44:02.702Z,7.10
2019-02-14T20:45:39.088Z,7.00
2019-02-14T20:47:14.249Z,7.00
2019-02-14T20:48:49.917Z,7.10
2019-02-14T20:50:25.417Z,7.00
2019-02-14T20:52:00.740Z,7.00
2019-02-14T20:53:36.438Z,7.00
2019-02-14T20:55:15.249Z,7.00